Time;durP1;ratioP1;P1;durP2;ratioP2;P2;SDS_P1;SDS_P2;PMS_P1;PMS_P2;Temp;Humidity;BMP_temperature;BMP_pressure;BME280_temperature;BME280_humidity;BME280_pressure;Samples;Min_cycle;Max_cycle;Signal;HPM_P1;HPM_P2
2021/08/22 00:00:48;;;;;;;7.50;5.30;;;;;;;19.67;50.71;97729.27;115894;1185;69087;-48
2021/08/22 00:03:18;;;;;;;6.80;5.70;;;;;;;19.65;50.43;97730.17;115899;1184;58750;-46
2021/08/22 00:05:48;;;;;;;7.70;5.50;;;;;;;19.63;50.53;97728.75;115952;1182;58778;-47
2021/08/22 00:08:17;;;;;;;;;;;;;;;19.61;50.50;97728.62;115947;1185;70563;-51
2021/08/22 00:10:47;;;;;;;7.20;5.20;;;;;;;19.59;50.74;97725.13;115815;1186;67327;-52
2021/08/22 00:13:19;;;;;;;7.60;5.70;;;;;;;19.56;50.75;97725.73;115843;1185;68409;-46
2021/08/22 00:15:49;;;;;;;9.10;5.30;;;;;;;19.55;50.65;97725.02;115929;1181;58798;-48
2021/08/22 00:18:18;;;;;;;8.80;5.80;;;;;;;19.53;50.68;97724.85;115891;1183;58710;-50
2021/08/22 00:20:48;;;;;;;7.70;5.60;;;;;;;19.51;50.52;97725.21;115752;1185;70530;-49
2021/08/22 00:23:18;;;;;;;;;;;;;;;19.50;50.67;97722.14;115974;1185;69232;-49
2021/08/22 00:25:48;;;;;;;;;;;;;;;19.48;50.82;97721.81;115914;1185;68446;-46
2021/08/22 00:28:18;;;;;;;7.10;5.00;;;;;;;19.47;50.79;97721.95;115929;1185;58935;-48
2021/08/22 00:30:48;;;;;;;6.40;4.70;;;;;;;19.46;50.59;97722.45;115932;1183;59170;-49
2021/08/22 00:33:17;;;;;;;6.70;4.80;;;;;;;19.44;50.83;97722.23;115968;1185;70519;-50
2021/08/22 00:35:48;;;;;;;7.60;5.30;;;;;;;19.43;50.77;97725.02;115841;1185;69203;-49
2021/08/22 00:38:18;;;;;;;7.80;5.30;;;;;;;19.42;50.83;97724.30;115897;1185;68575;-49
2021/08/22 00:40:48;;;;;;;;;;;;;;;19.40;50.74;97726.02;115931;1185;58777;-46
2021/08/22 00:43:18;;;;;;;7.60;5.20;;;;;;;19.39;51.07;97729.17;115846;1183;58774;-49
2021/08/22 00:45:47;;;;;;;7.10;5.00;;;;;;;19.37;51.00;97730.92;115918;1181;70407;-51
2021/08/22 00:48:17;;;;;;;;;;;;;;;19.36;50.90;97729.50;115891;1185;69022;-49
2021/08/22 00:50:47;;;;;;;6.90;5.10;;;;;;;19.32;50.99;97730.15;115784;1185;68296;-51
2021/08/22 00:53:17;;;;;;;7.60;5.00;;;;;;;19.31;50.82;97726.27;115855;1183;59194;-46
2021/08/22 00:55:49;;;;;;;7.20;5.10;;;;;;;19.29;51.02;97726.98;115825;1185;58732;-47
2021/08/22 00:58:19;;;;;;;6.70;5.10;;;;;;;19.28;50.98;97725.02;115824;1186;69761;-48
2021/08/22 01:00:49;;;;;;;7.00;5.10;;;;;;;19.26;50.98;97724.77;115900;1185;69111;-51
2021/08/22 01:03:22;;;;;;;;;;;;;;;19.25;51.02;97726.48;115865;1185;68441;-48
2021/08/22 01:06:13;;;;;;;5.70;4.60;;;;;;;19.23;51.11;97729.59;115864;1183;58750;-47
2021/08/22 01:08:53;;;;;;;6.60;5.00;;;;;;;19.21;51.19;97731.36;115896;1185;58776;-50
2021/08/22 01:11:26;;;;;;;6.80;4.40;;;;;;;19.19;51.12;97731.73;115931;1185;69874;-50
2021/08/22 01:14:03;;;;;;;7.80;4.60;;;;;;;19.17;51.14;97729.10;115967;1185;69254;-48
2021/08/22 01:16:39;;;;;;;7.30;4.90;;;;;;;19.15;51.15;97728.42;115856;1185;68393;-48
2021/08/22 01:19:54;;;;;;;6.50;4.60;;;;;;;19.13;51.13;97727.64;115916;1184;58743;-50
2021/08/22 01:22:25;;;;;;;7.00;5.40;;;;;;;19.10;51.16;97725.45;115896;1185;58717;-51
2021/08/22 01:24:57;;;;;;;7.30;5.10;;;;;;;19.09;51.02;97723.09;115813;1185;70522;-48
2021/08/22 01:27:28;;;;;;;7.40;5.00;;;;;;;19.06;50.95;97718.91;115831;1181;69155;-52
2021/08/22 01:30:03;;;;;;;6.60;4.70;;;;;;;19.05;51.08;97718.51;115815;1185;67431;-50
2021/08/22 01:32:59;;;;;;;6.80;5.50;;;;;;;19.03;51.12;97712.69;115898;1185;58759;-51
2021/08/22 01:35:30;;;;;;;8.80;5.50;;;;;;;19.03;51.17;97713.29;115884;1185;58778;-49
2021/08/22 01:38:00;;;;;;;8.40;5.40;;;;;;;19.01;51.16;97712.69;115966;1184;70350;-50
2021/08/22 01:40:31;;;;;;;7.30;5.10;;;;;;;19.00;51.12;97713.91;115941;1185;69140;-50
2021/08/22 01:43:03;;;;;;;8.00;5.20;;;;;;;19.00;51.06;97710.80;115926;1185;69274;-48
2021/08/22 01:45:34;;;;;;;7.20;5.50;;;;;;;18.99;51.18;97711.77;115978;1185;58739;-48
2021/08/22 01:48:06;;;;;;;7.20;5.00;;;;;;;18.98;51.17;97713.79;115894;1185;58737;-48
2021/08/22 01:50:36;;;;;;;6.60;5.00;;;;;;;18.97;51.31;97714.79;115954;1185;69984;-50
2021/08/22 01:53:08;;;;;;;6.00;5.20;;;;;;;18.96;51.40;97716.50;115978;1185;69183;-49
2021/08/22 01:55:38;;;;;;;6.70;5.00;;;;;;;18.94;51.23;97717.90;115899;1185;69084;-51
2021/08/22 01:58:09;;;;;;;6.70;5.10;;;;;;;18.92;51.29;97714.09;115946;1185;58760;-47
2021/08/22 02:00:42;;;;;;;6.00;4.60;;;;;;;18.90;51.32;97711.79;115830;1186;58760;-51
2021/08/22 02:03:31;;;;;;;7.10;4.90;;;;;;;18.89;51.21;97713.48;115957;1182;70598;-47
2021/08/22 02:06:46;;;;;;;7.00;5.20;;;;;;;18.86;51.14;97713.77;115928;1185;69209;-51
2021/08/22 02:09:24;;;;;;;5.90;4.40;;;;;;;18.84;51.12;97719.27;115839;1181;69127;-49
2021/08/22 02:12:01;;;;;;;6.70;4.50;;;;;;;18.82;51.13;97723.31;115928;1185;58741;-48
2021/08/22 02:14:33;;;;;;;6.30;4.40;;;;;;;18.80;50.98;97721.75;115922;1183;58814;-53
2021/08/22 02:17:04;;;;;;;7.70;4.80;;;;;;;18.78;50.96;97724.77;115838;1185;69915;-49
2021/08/22 02:19:35;;;;;;;6.10;4.70;;;;;;;18.76;50.90;97722.30;115918;1185;69250;-52
2021/08/22 02:22:06;;;;;;;6.10;4.70;;;;;;;18.75;51.07;97722.94;115924;1185;69219;-51
2021/08/22 02:24:37;;;;;;;6.60;4.60;;;;;;;18.74;51.05;97723.21;115797;1185;58772;-47
2021/08/22 02:27:08;;;;;;;6.60;4.30;;;;;;;18.73;51.04;97723.05;115922;1185;58733;-55
2021/08/22 02:29:49;;;;;;;6.60;4.90;;;;;;;18.71;51.07;97722.48;115914;1185;70539;-51
2021/08/22 02:32:19;;;;;;;7.30;4.90;;;;;;;18.69;51.19;97724.67;115940;1185;68405;-48
2021/08/22 02:34:51;;;;;;;6.60;5.10;;;;;;;18.67;51.17;97721.28;115931;1185;69146;-47
2021/08/22 02:37:21;;;;;;;6.90;4.80;;;;;;;18.66;51.26;97720.73;115959;1185;58773;-50
2021/08/22 02:39:52;;;;;;;6.40;4.60;;;;;;;18.64;51.30;97722.83;115952;1180;58780;-49
2021/08/22 02:42:23;;;;;;;6.70;4.80;;;;;;;18.63;51.47;97721.21;115980;1185;70578;-49
2021/08/22 02:44:52;;;;;;;7.30;4.90;;;;;;;18.62;51.53;97717.45;115873;1185;69127;-46
2021/08/22 02:47:23;;;;;;;7.50;5.50;;;;;;;18.60;51.52;97717.59;115938;1185;69139;-48
2021/08/22 02:49:53;;;;;;;5.80;4.70;;;;;;;18.58;51.62;97717.41;115931;1183;58765;-51
2021/08/22 02:52:23;;;;;;;6.80;5.20;;;;;;;18.58;51.68;97719.95;115930;1185;58723;-47
2021/08/22 02:54:53;;;;;;;6.60;4.60;;;;;;;18.57;51.72;97721.63;115819;1185;70580;-49
2021/08/22 02:57:24;;;;;;;6.20;4.90;;;;;;;18.55;51.70;97720.36;115787;1185;68422;-49
2021/08/22 02:59:56;;;;;;;5.80;4.50;;;;;;;18.54;51.74;97719.06;115821;1185;69849;-49
2021/08/22 03:02:27;;;;;;;7.40;5.00;;;;;;;18.53;51.80;97716.90;115897;1184;58722;-51
2021/08/22 03:04:59;;;;;;;6.60;4.80;;;;;;;18.51;51.95;97712.66;115833;1185;58818;-48
2021/08/22 03:07:31;;;;;;;6.60;5.10;;;;;;;18.50;51.90;97709.95;115972;1185;70539;-51
2021/08/22 03:10:03;;;;;;;5.50;4.50;;;;;;;18.50;51.91;97710.54;115858;1185;68671;-49
2021/08/22 03:12:33;;;;;;;6.80;4.60;;;;;;;18.48;51.84;97709.31;115865;1185;69191;-49
2021/08/22 03:15:08;;;;;;;5.40;4.20;;;;;;;18.47;51.93;97712.06;115891;1185;58734;-48
2021/08/22 03:17:39;;;;;;;6.90;4.60;;;;;;;18.45;51.92;97711.19;115857;1185;58701;-49
2021/08/22 03:20:10;;;;;;;6.60;4.60;;;;;;;18.44;51.97;97708.30;115832;1185;69736;-47
2021/08/22 03:22:42;;;;;;;5.40;4.10;;;;;;;18.42;52.01;97708.28;115947;1185;68450;-47
2021/08/22 03:25:14;;;;;;;5.90;4.30;;;;;;;18.41;52.08;97708.41;115860;1185;69206;-47
2021/08/22 03:27:43;;;;;;;6.30;4.20;;;;;;;18.40;52.10;97706.92;115900;1185;58742;-48
2021/08/22 03:30:13;;;;;;;5.90;4.30;;;;;;;18.39;52.00;97707.52;115903;1181;58726;-50
2021/08/22 03:32:43;;;;;;;6.10;4.60;;;;;;;18.38;52.00;97711.16;115919;1185;69632;-48
2021/08/22 03:35:13;;;;;;;5.60;4.20;;;;;;;18.37;52.08;97713.04;115903;1185;69180;-51
2021/08/22 03:37:43;;;;;;;6.30;4.10;;;;;;;18.36;52.14;97709.77;115933;1185;69108;-49
2021/08/22 03:40:13;;;;;;;7.20;4.50;;;;;;;18.35;52.06;97709.02;115892;1185;58777;-51
2021/08/22 03:42:43;;;;;;;5.60;4.30;;;;;;;18.33;52.21;97714.08;115876;1185;58757;-51
2021/08/22 03:45:13;;;;;;;;;;;;;;;18.32;52.32;97716.65;115898;1185;70959;-47
2021/08/22 03:47:43;;;;;;;;;;;;;;;18.29;52.43;97718.35;115894;1185;68407;-49
2021/08/22 03:50:13;;;;;;;5.10;4.10;;;;;;;18.27;52.48;97715.75;115895;1185;69049;-46
2021/08/22 03:52:47;;;;;;;4.90;3.60;;;;;;;18.26;52.31;97716.06;115933;1185;58761;-48
2021/08/22 03:55:19;;;;;;;7.00;4.10;;;;;;;18.24;52.35;97713.39;115961;1185;58770;-47
2021/08/22 03:57:50;;;;;;;4.80;4.00;;;;;;;18.23;52.18;97716.73;115944;1185;69757;-48
2021/08/22 04:00:19;;;;;;;5.50;4.10;;;;;;;18.21;52.38;97718.64;115937;1181;69118;-48
2021/08/22 04:02:49;;;;;;;5.90;4.40;;;;;;;18.20;52.22;97720.33;115860;1185;68426;-51
2021/08/22 04:05:44;;;;;;;6.70;4.60;;;;;;;18.19;52.58;97722.71;115765;1182;58803;-49
2021/08/22 04:08:14;;;;;;;5.40;3.80;;;;;;;18.18;52.67;97723.17;115936;1185;58756;-48
2021/08/22 04:10:45;;;;;;;4.70;3.90;;;;;;;18.17;52.44;97718.88;115922;1185;68844;-52
2021/08/22 04:13:15;;;;;;;4.80;3.80;;;;;;;18.18;52.37;97719.83;115944;1185;68510;-49
2021/08/22 04:15:46;;;;;;;5.40;3.50;;;;;;;18.20;52.43;97721.42;115745;1185;69387;-48
2021/08/22 04:18:18;;;;;;;5.40;3.80;;;;;;;18.23;52.40;97726.58;115856;1184;58726;-53
2021/08/22 04:20:48;;;;;;;5.00;3.70;;;;;;;18.26;52.39;97724.14;115927;1185;58696;-53
2021/08/22 04:23:18;;;;;;;5.40;3.90;;;;;;;18.31;52.48;97725.04;115781;1185;70577;-52
2021/08/22 04:25:49;;;;;;;4.90;3.70;;;;;;;18.37;52.30;97725.39;115838;1184;68806;-52
2021/08/22 04:28:18;;;;;;;;;;;;;;;18.42;52.25;97727.73;115882;1185;69035;-51
2021/08/22 04:30:48;;;;;;;5.20;3.10;;;;;;;18.47;52.40;97729.69;115841;1185;59210;-49
2021/08/22 04:33:20;;;;;;;4.90;3.40;;;;;;;18.52;52.30;97731.09;115833;1185;58805;-53
2021/08/22 04:35:49;;;;;;;4.80;3.50;;;;;;;18.57;52.19;97729.73;115832;1185;70572;-48
2021/08/22 04:38:19;;;;;;;4.50;3.70;;;;;;;18.62;52.15;97728.69;115897;1185;69196;-48
2021/08/22 04:40:49;;;;;;;5.20;3.10;;;;;;;18.68;52.05;97728.27;115844;1185;68279;-51
2021/08/22 04:43:18;;;;;;;5.80;3.30;;;;;;;18.73;52.08;97730.23;115906;1185;58699;-51
2021/08/22 04:45:47;;;;;;;5.80;3.30;;;;;;;18.80;51.94;97732.37;115884;1181;58730;-49
2021/08/22 04:48:18;;;;;;;4.70;3.40;;;;;;;18.85;51.90;97734.17;115903;1185;69787;-48
2021/08/22 04:50:48;;;;;;;4.20;3.10;;;;;;;18.90;51.84;97733.44;115922;1185;69046;-47
2021/08/22 04:53:18;;;;;;;4.90;3.40;;;;;;;18.96;51.78;97734.14;115880;1185;68413;-50
2021/08/22 04:55:47;;;;;;;4.60;3.50;;;;;;;19.02;51.61;97734.91;115922;1185;58782;-51
2021/08/22 04:58:17;;;;;;;3.80;3.30;;;;;;;19.07;51.85;97733.29;115902;1184;58777;-53
2021/08/22 05:00:46;;;;;;;5.20;3.60;;;;;;;19.14;51.67;97737.25;115962;1185;69920;-53
2021/08/22 05:03:16;;;;;;;3.90;3.30;;;;;;;19.19;51.59;97739.88;115970;1181;69022;-51
2021/08/22 05:05:46;;;;;;;4.90;3.70;;;;;;;19.25;51.48;97742.95;115878;1185;68624;-47
2021/08/22 05:08:17;;;;;;;4.40;3.30;;;;;;;19.31;51.53;97745.46;115923;1185;58769;-53
2021/08/22 05:10:48;;;;;;;4.20;3.50;;;;;;;19.38;51.47;97748.73;115932;1185;58681;-46
2021/08/22 05:13:18;;;;;;;4.40;3.10;;;;;;;19.44;51.27;97751.81;115955;1185;70588;-48
2021/08/22 05:15:50;;;;;;;5.20;3.50;;;;;;;19.50;51.27;97752.04;115971;1185;69310;-47
2021/08/22 05:18:21;;;;;;;4.40;3.00;;;;;;;19.55;51.15;97751.30;115871;1185;69108;-48
2021/08/22 05:20:52;;;;;;;4.40;3.30;;;;;;;19.61;51.17;97749.30;115844;1182;58704;-51
2021/08/22 05:23:22;;;;;;;5.00;3.30;;;;;;;19.67;50.97;97754.00;115879;1184;58748;-52
2021/08/22 05:25:51;;;;;;;;;;;;;;;19.73;50.96;97754.27;115793;1185;69740;-47
2021/08/22 05:28:21;;;;;;;5.00;3.20;;;;;;;19.78;51.12;97753.74;115786;1185;69162;-47
2021/08/22 05:30:50;;;;;;;4.70;3.60;;;;;;;19.84;50.90;97753.42;115944;1185;69488;-50
2021/08/22 05:33:20;;;;;;;4.50;3.60;;;;;;;19.89;50.80;97752.22;115854;1182;58749;-52
2021/08/22 05:35:49;;;;;;;4.00;3.10;;;;;;;19.96;50.76;97753.09;115934;1185;58751;-51
2021/08/22 05:38:19;;;;;;;5.90;3.40;;;;;;;20.01;50.76;97758.71;115906;1185;71318;-49
2021/08/22 05:40:49;;;;;;;6.60;3.70;;;;;;;20.07;50.52;97759.15;115840;1185;67809;-48
2021/08/22 05:43:18;;;;;;;7.40;3.90;;;;;;;20.13;50.61;97759.55;115739;1187;69059;-50
2021/08/22 05:45:48;;;;;;;5.20;3.90;;;;;;;20.19;50.78;97758.64;115843;1185;58730;-48
2021/08/22 05:48:17;;;;;;;6.30;4.40;;;;;;;20.23;51.07;97761.16;115839;1185;58748;-51
2021/08/22 05:50:47;;;;;;;5.00;3.50;;;;;;;20.26;51.02;97763.67;115750;1185;70397;-46
2021/08/22 05:53:16;;;;;;;5.20;3.70;;;;;;;20.30;51.08;97767.48;115785;1185;69029;-52
2021/08/22 05:55:46;;;;;;;5.00;3.70;;;;;;;20.32;51.06;97772.33;115908;1185;69358;-49
2021/08/22 05:58:15;;;;;;;5.10;3.80;;;;;;;20.34;51.02;97771.11;115886;1181;58751;-47
2021/08/22 06:00:44;;;;;;;5.30;3.50;;;;;;;20.37;51.05;97772.27;115913;1185;58759;-48
2021/08/22 06:03:14;;;;;;;6.20;3.90;;;;;;;20.38;50.90;97774.23;115915;1185;69781;-47
2021/08/22 06:05:43;;;;;;;;;;;;;;;20.40;51.01;97774.73;115915;1185;69230;-53
2021/08/22 06:08:13;;;;;;;4.80;3.30;;;;;;;20.42;51.24;97772.40;115805;1185;68439;-48
2021/08/22 06:10:43;;;;;;;4.90;3.80;;;;;;;20.44;51.22;97775.77;115862;1185;58761;-51
2021/08/22 06:13:13;;;;;;;4.80;3.60;;;;;;;20.45;51.39;97776.36;115875;1185;58737;-49
2021/08/22 06:15:42;;;;;;;5.00;3.70;;;;;;;20.46;51.44;97776.02;115842;1185;69891;-48
2021/08/22 06:18:11;;;;;;;4.60;3.50;;;;;;;20.47;51.37;97775.56;115866;1185;69288;-50
2021/08/22 06:20:41;;;;;;;5.50;3.80;;;;;;;20.49;51.40;97777.02;115826;1185;68126;-52
2021/08/22 06:23:10;;;;;;;4.60;3.60;;;;;;;20.50;51.60;97774.60;115856;1185;58788;-47
2021/08/22 06:25:39;;;;;;;5.90;4.10;;;;;;;20.50;51.66;97778.77;115931;1185;58707;-49
2021/08/22 06:28:09;;;;;;;5.00;3.50;;;;;;;20.51;51.47;97783.99;115861;1184;70546;-51
2021/08/22 06:30:38;;;;;;;6.10;3.70;;;;;;;20.52;51.60;97782.48;115925;1185;68708;-49
2021/08/22 06:33:08;;;;;;;4.40;3.40;;;;;;;20.54;51.76;97782.71;115875;1185;69290;-47
2021/08/22 06:35:38;;;;;;;4.90;3.90;;;;;;;20.54;51.87;97782.94;115827;1185;58764;-49
2021/08/22 06:38:08;;;;;;;5.90;3.80;;;;;;;20.56;51.85;97779.81;115910;1185;58753;-47
2021/08/22 06:40:38;;;;;;;5.20;3.50;;;;;;;20.56;51.92;97776.33;115920;1185;69726;-49
2021/08/22 06:43:07;;;;;;;5.60;3.70;;;;;;;20.58;51.91;97778.66;115781;1185;69223;-49
2021/08/22 06:45:37;;;;;;;5.00;3.60;;;;;;;20.59;51.97;97780.11;115895;1185;68106;-49
2021/08/22 06:48:07;;;;;;;4.90;3.30;;;;;;;20.61;52.16;97781.20;115898;1182;58742;-49
2021/08/22 06:50:38;;;;;;;4.50;3.50;;;;;;;20.63;52.08;97782.41;115938;1185;59074;-47
2021/08/22 06:53:07;;;;;;;4.60;3.90;;;;;;;20.64;52.04;97785.06;115880;1185;70401;-48
2021/08/22 06:55:36;;;;;;;5.90;3.60;;;;;;;20.66;52.09;97785.73;115893;1185;68257;-46
2021/08/22 06:58:06;;;;;;;5.10;3.40;;;;;;;20.69;52.15;97785.27;115843;1185;69228;-49
2021/08/22 07:00:36;;;;;;;4.60;3.40;;;;;;;20.72;52.05;97781.75;115911;1185;58718;-49
2021/08/22 07:03:07;;;;;;;5.10;3.40;;;;;;;20.76;52.01;97780.63;115870;1185;58681;-49
2021/08/22 07:05:37;;;;;;;5.40;3.50;;;;;;;20.79;52.00;97773.17;115841;1185;69815;-46
2021/08/22 07:08:06;;;;;;;4.30;3.40;;;;;;;20.83;51.92;97777.02;115841;1185;69216;-47
2021/08/22 07:10:36;;;;;;;5.90;3.50;;;;;;;20.87;51.76;97775.77;115918;1185;69122;-51
2021/08/22 07:13:05;;;;;;;4.10;3.10;;;;;;;20.90;51.58;97776.09;115885;1184;59132;-49
2021/08/22 07:15:34;;;;;;;4.40;3.50;;;;;;;20.95;51.60;97783.19;115871;1183;58761;-53
2021/08/22 07:18:03;;;;;;;4.80;3.80;;;;;;;20.99;51.70;97779.92;115904;1185;70388;-49
2021/08/22 07:20:33;;;;;;;4.80;3.80;;;;;;;21.02;51.54;97777.79;115818;1185;68459;-49
2021/08/22 07:23:02;;;;;;;5.40;3.80;;;;;;;21.05;51.49;97783.24;115805;1185;68555;-50
2021/08/22 07:25:35;;;;;;;4.40;3.50;;;;;;;21.09;51.72;97788.20;115821;1185;58672;-53
2021/08/22 07:28:08;;;;;;;4.80;3.80;;;;;;;21.12;51.67;97786.91;115731;1182;58747;-53
2021/08/22 07:30:42;;;;;;;5.50;4.70;;;;;;;21.16;51.46;97788.50;115646;1184;69642;-53
2021/08/22 07:33:13;;;;;;;7.00;4.90;;;;;;;21.19;51.43;97788.10;115773;1186;68948;-53
2021/08/22 07:35:43;;;;;;;7.20;5.30;;;;;;;21.23;51.58;97789.83;115762;1186;69078;-49
2021/08/22 07:38:14;;;;;;;7.20;4.90;;;;;;;21.27;51.69;97793.63;115731;1181;58760;-50
2021/08/22 07:40:45;;;;;;;5.90;4.70;;;;;;;21.32;51.65;97795.02;115688;1186;58799;-56
2021/08/22 07:43:16;;;;;;;7.90;5.20;;;;;;;21.38;51.39;97795.30;115760;1187;70110;-54
2021/08/22 07:45:47;;;;;;;5.50;4.50;;;;;;;21.43;51.53;97788.84;115714;1186;69037;-50
2021/08/22 07:48:17;;;;;;;5.90;4.80;;;;;;;21.50;51.51;97788.48;115808;1186;69226;-50
2021/08/22 07:50:49;;;;;;;6.10;5.30;;;;;;;21.56;51.36;97787.20;115702;1186;59609;-50
2021/08/22 07:53:20;;;;;;;5.80;4.60;;;;;;;21.63;51.32;97784.35;115729;1187;59531;-50
2021/08/22 07:55:50;;;;;;;6.20;4.70;;;;;;;21.70;51.19;97779.06;115725;1186;72079;-51
2021/08/22 07:58:21;;;;;;;7.40;5.00;;;;;;;21.78;51.15;97781.02;115685;1187;68805;-48
2021/08/22 08:00:51;;;;;;;5.40;4.30;;;;;;;21.85;51.02;97781.27;115650;1183;69276;-50
2021/08/22 08:03:25;;;;;;;5.90;4.60;;;;;;;21.93;50.97;97780.72;115695;1185;59557;-60
2021/08/22 08:06:02;;;;;;;6.80;4.90;;;;;;;22.02;51.14;97777.22;115891;1181;59570;-54
2021/08/22 08:08:35;;;;;;;6.50;5.10;;;;;;;22.11;50.91;97776.70;115725;1186;71354;-55
2021/08/22 08:11:14;;;;;;;5.80;4.70;;;;;;;22.22;50.67;97777.09;115777;1188;68460;-54
2021/08/22 08:13:47;;;;;;;5.50;4.50;;;;;;;22.30;50.60;97776.88;115719;1186;68471;-54
2021/08/22 08:16:19;;;;;;;6.50;4.70;;;;;;;22.38;50.40;97775.59;115681;1186;59556;-54
2021/08/22 08:18:54;;;;;;;40.40;37.00;;;;;;;22.46;50.33;97779.25;115700;1182;59548;-54
2021/08/22 08:21:25;;;;;;;36.20;32.90;;;;;;;22.55;50.09;97775.56;115599;1186;70391;-55
2021/08/22 08:23:57;;;;;;;21.40;19.20;;;;;;;22.63;50.16;97776.23;115813;1186;68432;-51
2021/08/22 08:26:28;;;;;;;23.60;20.80;;;;;;;22.71;50.10;97778.50;115815;1186;69241;-52
2021/08/22 08:28:59;;;;;;;18.30;14.90;;;;;;;22.78;49.94;97779.77;115833;1182;59552;-51
2021/08/22 08:31:35;;;;;;;15.00;12.00;;;;;;;22.86;49.86;97774.94;115913;1185;59505;-50
2021/08/22 08:34:06;;;;;;;14.80;10.70;;;;;;;22.94;49.95;97773.00;115786;1183;71359;-52
2021/08/22 08:36:38;;;;;;;12.70;9.70;;;;;;;23.02;49.69;97775.79;115782;1185;69086;-54
2021/08/22 08:39:10;;;;;;;11.80;9.10;;;;;;;23.09;49.71;97770.82;115671;1185;69214;-56
2021/08/22 08:41:41;;;;;;;11.10;8.40;;;;;;;23.16;49.65;97768.55;115748;1185;59517;-55
2021/08/22 08:44:13;;;;;;;9.00;7.10;;;;;;;23.24;49.60;97771.02;115824;1183;59951;-52
2021/08/22 08:46:53;;;;;;;7.90;6.60;;;;;;;23.30;49.40;97771.34;115824;1185;71397;-53
2021/08/22 08:49:29;;;;;;;7.70;5.80;;;;;;;23.36;48.97;97771.67;116012;1182;67461;-56
2021/08/22 08:52:10;;;;;;;6.40;5.50;;;;;;;23.42;48.88;97770.34;115785;1185;69051;-51
2021/08/22 08:55:05;;;;;;;6.20;5.50;;;;;;;23.47;48.72;97772.75;115816;1185;59495;-54
2021/08/22 08:57:37;;;;;;;5.70;5.10;;;;;;;23.52;48.71;97770.29;115700;1182;59681;-57
2021/08/22 09:00:14;;;;;;;5.50;4.70;;;;;;;23.57;48.64;97773.59;115820;1185;71360;-54
2021/08/22 09:02:45;;;;;;;5.30;4.80;;;;;;;23.61;48.54;97772.39;115821;1185;69181;-54
2021/08/22 09:05:37;;;;;;;5.70;5.00;;;;;;;23.65;48.47;97772.85;115827;1185;69133;-52
2021/08/22 09:08:11;;;;;;;5.60;4.40;;;;;;;23.68;48.40;97766.05;115775;1184;59555;-57
2021/08/22 09:11:03;;;;;;;5.50;4.50;;;;;;;23.71;48.27;97767.40;115815;1185;59548;-53
2021/08/22 09:14:15;;;;;;;6.10;4.80;;;;;;;23.73;48.22;97763.56;115855;1185;70242;-55
2021/08/22 09:17:18;;;;;;;5.70;4.70;;;;;;;23.75;48.24;97765.63;115772;1186;69170;-56
2021/08/22 09:20:26;;;;;;;5.60;4.70;;;;;;;23.76;48.23;97767.39;115729;1185;69239;-56
2021/08/22 09:23:38;;;;;;;5.50;4.70;;;;;;;23.77;48.27;97766.21;115713;1185;59570;-56
2021/08/22 09:26:43;;;;;;;5.20;4.30;;;;;;;23.78;48.22;97763.67;115803;1182;59520;-53
2021/08/22 09:29:44;;;;;;;5.40;4.10;;;;;;;23.78;48.17;97763.05;115731;1185;71219;-59
2021/08/22 09:32:57;;;;;;;5.30;4.80;;;;;;;23.79;48.17;97767.24;115794;1186;68398;-56
2021/08/22 09:36:05;;;;;;;5.50;3.80;;;;;;;23.79;48.17;97765.61;115799;1185;69262;-57
2021/08/22 09:39:13;;;;;;;5.20;3.90;;;;;;;23.79;48.17;97763.28;115874;1185;59581;-56
2021/08/22 09:42:22;;;;;;;4.90;3.90;;;;;;;23.80;48.04;97763.05;115710;1185;59533;-56
2021/08/22 09:45:31;;;;;;;5.00;3.80;;;;;;;23.80;48.01;97761.81;115785;1185;71383;-56
2021/08/22 09:48:20;;;;;;;4.70;3.70;;;;;;;23.81;48.07;97755.79;115734;1185;69273;-56
2021/08/22 09:51:10;;;;;;;4.30;3.80;;;;;;;23.82;48.03;97752.06;115764;1185;69239;-50
2021/08/22 09:54:14;;;;;;;6.20;3.90;;;;;;;23.84;47.92;97748.17;115705;1182;59537;-56
2021/08/22 09:57:22;;;;;;;8.10;4.60;;;;;;;23.87;48.02;97748.88;115862;1185;59515;-56
2021/08/22 10:00:28;;;;;;;6.80;4.30;;;;;;;23.91;48.20;97744.64;115885;1185;71327;-56
2021/08/22 10:03:04;;;;;;;21.40;6.70;;;;;;;23.96;48.20;97744.58;115394;1191;67997;-54
2021/08/22 10:05:54;;;;;;;14.60;6.90;;;;;;;24.00;48.33;97738.17;115515;1189;69229;-55
2021/08/22 10:08:36;;;;;;;14.80;6.00;;;;;;;24.05;48.28;97735.56;115511;1189;59601;-57
2021/08/22 10:11:41;;;;;;;15.50;6.30;;;;;;;24.10;48.22;97734.02;115502;1184;59521;-57
2021/08/22 10:14:13;;;;;;;15.60;6.50;;;;;;;24.16;48.13;97734.39;115492;1189;71371;-54
2021/08/22 10:16:50;;;;;;;15.10;6.30;;;;;;;24.21;48.01;97730.13;115536;1185;69191;-55
2021/08/22 10:19:25;;;;;;;19.20;7.10;;;;;;;24.25;47.91;97733.05;115464;1190;69260;-56
2021/08/22 10:22:18;;;;;;;15.60;6.50;;;;;;;24.30;47.81;97730.06;115516;1189;59530;-55
2021/08/22 10:24:58;;;;;;;18.20;6.80;;;;;;;24.35;47.69;97731.39;115529;1185;59547;-55
2021/08/22 10:27:32;;;;;;;15.00;6.60;;;;;;;24.38;47.60;97731.66;115623;1186;71373;-55
2021/08/22 10:30:03;;;;;;;12.60;6.50;;;;;;;24.42;47.44;97728.52;115526;1191;69193;-53
2021/08/22 10:32:54;;;;;;;15.40;6.30;;;;;;;24.46;47.28;97726.42;115477;1189;68630;-60
2021/08/22 10:35:29;;;;;;;12.20;5.40;;;;;;;24.50;46.99;97724.52;115436;1190;59582;-51
2021/08/22 10:38:20;;;;;;;11.90;6.40;;;;;;;24.54;46.87;97723.68;115542;1185;59604;-53
2021/08/22 10:40:52;;;;;;;10.20;6.30;;;;;;;24.58;46.63;97722.28;115682;1188;71372;-52
2021/08/22 10:43:23;;;;;;;10.00;5.60;;;;;;;24.60;46.72;97717.88;115780;1186;67413;-54
2021/08/22 10:45:55;;;;;;;11.90;5.40;;;;;;;24.63;46.59;97709.43;115756;1186;68267;-53
2021/08/22 10:48:26;;;;;;;12.00;5.70;;;;;;;24.67;46.59;97708.83;115815;1185;59596;-56
2021/08/22 10:51:01;;;;;;;13.30;6.00;;;;;;;24.70;46.50;97707.59;115746;1187;59512;-55
2021/08/22 10:53:36;;;;;;;9.40;5.10;;;;;;;24.73;46.46;97706.50;115809;1187;71564;-55
2021/08/22 10:56:25;;;;;;;9.40;4.70;;;;;;;24.76;46.36;97704.46;115829;1186;69161;-57
2021/08/22 10:58:56;;;;;;;10.10;5.20;;;;;;;24.79;46.32;97706.59;115785;1186;69167;-54
2021/08/22 11:01:28;;;;;;;8.40;5.00;;;;;;;24.82;46.27;97704.79;115874;1186;59559;-57
2021/08/22 11:04:19;;;;;;;9.50;5.00;;;;;;;24.85;46.20;97706.11;115788;1183;59542;-57
2021/08/22 11:06:56;;;;;;;8.60;4.20;;;;;;;24.89;46.11;97708.71;115862;1186;71255;-56
2021/08/22 11:09:42;;;;;;;10.70;5.00;;;;;;;24.92;46.05;97705.86;115799;1186;68404;-55
2021/08/22 11:12:26;;;;;;;6.30;4.40;;;;;;;24.96;45.74;97705.02;115834;1186;68503;-54
2021/08/22 11:14:59;;;;;;;9.90;4.80;;;;;;;24.98;45.60;97704.54;115898;1183;59521;-57
2021/08/22 11:17:30;;;;;;;7.60;4.30;;;;;;;25.01;45.63;97705.17;115816;1187;59566;-55
2021/08/22 11:20:16;;;;;;;6.90;4.30;;;;;;;25.04;45.65;97702.92;115855;1186;71268;-54
2021/08/22 11:22:50;;;;;;;7.10;4.40;;;;;;;25.06;45.54;97697.48;115720;1187;68671;-54
2021/08/22 11:25:28;;;;;;;7.60;4.20;;;;;;;25.08;45.59;97692.69;115852;1186;68325;-55
2021/08/22 11:28:11;;;;;;;6.60;4.20;;;;;;;25.11;45.50;97694.98;115890;1186;59601;-58
2021/08/22 11:30:43;;;;;;;8.50;4.40;;;;;;;25.14;45.42;97694.51;115725;1185;59475;-55
2021/08/22 11:33:14;;;;;;;6.90;4.50;;;;;;;25.17;45.42;97695.39;115816;1185;71167;-54
2021/08/22 11:35:47;;;;;;;9.40;4.40;;;;;;;25.20;45.36;97694.46;115862;1185;68316;-54
2021/08/22 11:38:18;;;;;;;6.40;4.00;;;;;;;25.23;45.37;97691.92;115907;1185;68263;-56
2021/08/22 11:40:49;;;;;;;8.10;4.90;;;;;;;25.25;45.34;97690.17;115897;1181;59568;-57
2021/08/22 11:43:20;;;;;;;6.40;3.70;;;;;;;25.28;45.12;97692.48;115919;1185;59541;-58
2021/08/22 11:45:50;;;;;;;6.30;3.70;;;;;;;25.31;44.75;97690.64;115827;1185;70457;-57
2021/08/22 11:48:24;;;;;;;6.50;4.20;;;;;;;25.33;44.45;97690.13;115786;1185;68980;-57
2021/08/22 11:51:05;;;;;;;6.20;3.70;;;;;;;25.35;44.38;97688.48;115926;1185;69193;-57
2021/08/22 11:53:36;;;;;;;4.50;3.70;;;;;;;25.37;44.06;97687.13;115868;1185;59539;-58
2021/08/22 11:56:07;;;;;;;4.20;3.40;;;;;;;25.40;43.94;97682.05;115851;1185;59491;-57
2021/08/22 11:58:37;;;;;;;6.30;3.90;;;;;;;25.42;43.76;97679.99;115802;1185;71167;-55
2021/08/22 12:01:17;;;;;;;5.00;3.50;;;;;;;25.45;43.77;97678.77;115898;1185;68985;-56